Time;durP1;ratioP1;P1;durP2;ratioP2;P2;SDS_P1;SDS_P2;PMS_P1;PMS_P2;Temp;Humidity;BMP_temperature;BMP_pressure;BME280_temperature;BME280_humidity;BME280_pressure;Samples;Min_cycle;Max_cycle;Signal;HPM_P1;HPM_P2
2021/12/22 00:00:09;;;;;;;0.30;0.30;;;-3.00;99.90;;;;;;5072948;28;20409;-82
2021/12/22 00:02:36;;;;;;;0.40;0.40;;;-3.00;99.90;;;;;;5089369;28;20524;-80
2021/12/22 00:05:04;;;;;;;0.38;0.38;;;-3.00;99.90;;;;;;5088889;28;20064;-82
2021/12/22 00:07:30;;;;;;;0.30;0.30;;;-3.00;99.90;;;;;;5089228;28;20048;-80
2021/12/22 00:09:57;;;;;;;0.30;0.30;;;-3.00;99.90;;;;;;5072333;28;20090;-80
2021/12/22 00:12:24;;;;;;;0.30;0.30;;;-3.00;99.90;;;;;;5073225;28;20072;-80
2021/12/22 00:14:50;;;;;;;0.32;0.32;;;-3.00;99.90;;;;;;5092559;28;20098;-82
2021/12/22 00:17:17;;;;;;;0.30;0.30;;;-3.10;99.90;;;;;;5076594;28;20071;-79
2021/12/22 00:19:44;;;;;;;0.30;0.30;;;-3.10;99.90;;;;;;5076228;28;20036;-80
2021/12/22 00:22:11;;;;;;;0.30;0.30;;;-3.10;99.90;;;;;;5076302;28;20103;-80
2021/12/22 00:24:37;;;;;;;0.40;0.40;;;-2.30;99.90;;;;;;5076090;28;20067;-80
2021/12/22 00:27:04;;;;;;;0.40;0.40;;;-3.10;99.90;;;;;;5075881;28;20040;-82
2021/12/22 00:29:31;;;;;;;0.35;0.35;;;-3.10;99.90;;;;;;5077981;28;20707;-80
2021/12/22 00:32:11;;;;;;;0.40;0.40;;;-2.20;99.90;;;;;;5076759;28;20103;-81
2021/12/22 00:34:51;;;;;;;0.30;0.30;;;-3.10;99.90;;;;;;5080266;28;20130;-83
2021/12/22 00:37:21;;;;;;;0.60;0.60;;;-3.20;99.90;;;;;;5078808;28;20040;-80
2021/12/22 00:39:50;;;;;;;0.40;0.40;;;-2.20;99.90;;;;;;5093590;28;20099;-83
2021/12/22 00:42:17;;;;;;;0.38;0.38;;;-2.10;99.90;;;;;;5108719;28;20044;-80
2021/12/22 00:44:51;;;;;;;0.30;0.30;;;-3.10;99.90;;;;;;5075486;28;20040;-80
2021/12/22 00:47:18;;;;;;;0.32;0.32;;;-3.20;99.90;;;;;;5076501;28;20033;-83
2021/12/22 00:49:45;;;;;;;0.40;0.40;;;-3.20;99.90;;;;;;5077420;28;20032;-83
2021/12/22 00:52:12;;;;;;;0.40;0.40;;;-3.10;99.90;;;;;;5093740;28;20033;-83
2021/12/22 00:54:39;;;;;;;0.40;0.40;;;-3.20;99.90;;;;;;5076927;28;20473;-83
2021/12/22 00:57:06;;;;;;;0.35;0.35;;;-3.20;99.90;;;;;;5076080;28;20127;-84
2021/12/22 00:59:35;;;;;;;0.40;0.40;;;-3.20;99.90;;;;;;5075796;28;20105;-80
2021/12/22 01:02:05;;;;;;;0.40;0.40;;;-3.20;99.90;;;;;;5075739;28;20135;-82
2021/12/22 01:04:32;;;;;;;0.30;0.30;;;-3.20;99.90;;;;;;5092216;28;20048;-80
2021/12/22 01:06:59;;;;;;;0.30;0.30;;;-2.60;99.90;;;;;;5110362;28;20052;-79
2021/12/22 01:09:26;;;;;;;0.40;0.40;;;-3.30;99.90;;;;;;5074916;28;20036;-80
2021/12/22 01:11:53;;;;;;;0.30;0.30;;;-1.90;99.90;;;;;;5076135;28;20036;-82
2021/12/22 01:14:21;;;;;;;0.30;0.30;;;-2.30;99.90;;;;;;5074727;28;20033;-79
2021/12/22 01:16:50;;;;;;;0.40;0.40;;;-3.30;99.90;;;;;;5091942;28;20041;-80
2021/12/22 01:19:27;;;;;;;0.40;0.40;;;-3.30;99.90;;;;;;5075065;28;20033;-80
2021/12/22 01:22:02;;;;;;;0.40;0.40;;;-2.90;99.90;;;;;;5077171;28;20489;-82
2021/12/22 01:24:33;;;;;;;0.40;0.40;;;-3.30;99.90;;;;;;5093659;28;20040;-80
2021/12/22 01:27:09;;;;;;;0.38;0.38;;;-2.00;99.90;;;;;;5092709;28;20040;-82
2021/12/22 01:29:38;;;;;;;0.30;0.30;;;-2.80;99.90;;;;;;5092751;28;20047;-82
2021/12/22 01:32:09;;;;;;;0.40;0.40;;;-2.50;99.90;;;;;;5092105;28;20036;-82
2021/12/22 01:34:35;;;;;;;0.40;0.40;;;-3.40;99.90;;;;;;5091723;28;20443;-81
2021/12/22 01:37:02;;;;;;;0.40;0.40;;;-3.40;99.90;;;;;;5075197;28;20040;-83
2021/12/22 01:39:29;;;;;;;0.30;0.30;;;-3.40;99.90;;;;;;5090844;28;20612;-83
2021/12/22 01:41:56;;;;;;;0.30;0.30;;;-3.40;99.90;;;;;;5075222;28;20091;-81
2021/12/22 01:44:48;;;;;;;0.30;0.30;;;-3.40;99.90;;;;;;5075039;28;20056;-83
2021/12/22 01:50:09;;;;;;;0.40;0.40;;;-3.40;99.90;;;;;;5093616;28;20036;-81
2021/12/22 01:52:36;;;;;;;0.38;0.38;;;-3.40;99.90;;;;;;5090766;28;20040;-81
2021/12/22 01:55:14;;;;;;;0.40;0.40;;;-3.40;99.90;;;;;;5091448;28;20269;-84
2021/12/22 01:57:48;;;;;;;0.40;0.40;;;-3.40;99.90;;;;;;5107729;28;20044;-81
2021/12/22 02:00:17;;;;;;;0.30;0.30;;;-2.50;99.90;;;;;;5090778;28;20044;-80
2021/12/22 02:02:43;;;;;;;0.40;0.40;;;-2.50;99.90;;;;;;5091241;28;20055;-83
2021/12/22 02:05:10;;;;;;;0.40;0.40;;;-3.50;99.90;;;;;;5090734;28;20048;-83
2021/12/22 02:07:37;;;;;;;0.30;0.30;;;-3.50;99.90;;;;;;5074617;28;20405;-84
2021/12/22 02:10:35;;;;;;;0.40;0.40;;;-3.50;99.90;;;;;;5075404;28;20515;-81
2021/12/22 02:12:54;;;;;;;0.40;0.40;;;-3.50;99.90;;;;;;5107253;28;20082;-81
2021/12/22 02:15:21;;;;;;;0.40;0.40;;;-3.30;99.90;;;;;;5073806;28;20508;-81
2021/12/22 02:17:49;;;;;;;0.30;0.30;;;-3.50;99.90;;;;;;5074589;28;20044;-80
2021/12/22 02:20:16;;;;;;;0.30;0.30;;;-3.00;99.90;;;;;;5090590;28;20127;-82
2021/12/22 02:22:44;;;;;;;0.40;0.40;;;-3.50;99.90;;;;;;5073946;28;20059;-81
2021/12/22 02:25:17;;;;;;;0.30;0.30;;;-3.50;99.90;;;;;;5074595;28;20033;-80
2021/12/22 02:27:52;;;;;;;0.30;0.30;;;-3.50;99.90;;;;;;5091373;28;20118;-80
2021/12/22 02:30:26;;;;;;;0.40;0.40;;;-3.50;99.90;;;;;;5075569;28;20048;-80
2021/12/22 02:35:39;;;;;;;0.40;0.40;;;-3.50;99.90;;;;;;5090843;28;20432;-82
2021/12/22 02:38:13;;;;;;;0.38;0.38;;;-3.60;99.90;;;;;;5106160;28;20885;-80
2021/12/22 02:40:40;;;;;;;0.40;0.40;;;-3.50;99.90;;;;;;5091288;28;20042;-80
2021/12/22 02:43:06;;;;;;;0.30;0.30;;;-3.60;99.90;;;;;;5075494;28;20048;-82
2021/12/22 02:45:34;;;;;;;1.75;0.80;;;-3.60;99.90;;;;;;5075345;28;20048;-82
2021/12/22 02:48:00;;;;;;;0.40;0.40;;;-3.60;99.90;;;;;;5091318;28;20413;-82
2021/12/22 02:50:27;;;;;;;0.30;0.30;;;-3.60;99.90;;;;;;5073820;28;20041;-79
2021/12/22 02:55:31;;;;;;;0.40;0.40;;;-3.60;99.90;;;;;;5107953;28;20045;-80
2021/12/22 02:58:03;;;;;;;0.30;0.30;;;-3.70;99.90;;;;;;5075417;28;20040;-80
2021/12/22 03:00:47;;;;;;;0.40;0.40;;;-2.50;99.90;;;;;;5074630;28;20091;-82
2021/12/22 03:03:30;;;;;;;0.32;0.32;;;-3.60;99.90;;;;;;5075829;28;20044;-79
2021/12/22 03:06:00;;;;;;;0.40;0.40;;;-3.60;99.90;;;;;;5074846;28;20056;-80
2021/12/22 03:08:26;;;;;;;0.38;0.38;;;-3.70;99.90;;;;;;5074712;28;20049;-79
2021/12/22 03:10:55;;;;;;;0.40;0.40;;;-3.70;99.90;;;;;;5073074;28;20048;-82
2021/12/22 03:13:23;;;;;;;0.30;0.30;;;-3.70;99.90;;;;;;5073526;28;20076;-80
2021/12/22 03:15:50;;;;;;;0.30;0.30;;;-3.60;99.90;;;;;;5090170;28;20407;-82
2021/12/22 03:18:18;;;;;;;0.40;0.40;;;-3.70;99.90;;;;;;5090478;28;20055;-82
2021/12/22 03:20:53;;;;;;;0.30;0.30;;;-2.80;99.90;;;;;;5089650;28;20109;-79
2021/12/22 03:23:21;;;;;;;0.30;0.30;;;-3.70;99.90;;;;;;5075178;28;20040;-80
2021/12/22 03:25:47;;;;;;;0.40;0.40;;;-3.70;99.90;;;;;;5072972;28;20044;-80
2021/12/22 03:28:14;;;;;;;0.38;0.38;;;-3.70;99.90;;;;;;5073015;28;20044;-80
2021/12/22 03:30:41;;;;;;;0.50;0.50;;;-3.70;99.90;;;;;;5072858;28;20033;-80
2021/12/22 03:33:08;;;;;;;0.30;0.30;;;-3.70;99.90;;;;;;5073139;28;20033;-80
2021/12/22 03:35:35;;;;;;;0.30;0.30;;;-3.80;99.90;;;;;;5073967;28;20036;-83
2021/12/22 03:38:02;;;;;;;0.40;0.40;;;-3.70;99.90;;;;;;5073072;28;20040;-82
2021/12/22 03:40:29;;;;;;;0.40;0.40;;;-3.80;99.90;;;;;;5074132;28;20044;-80
2021/12/22 03:42:56;;;;;;;0.68;0.68;;;-3.80;99.90;;;;;;5073373;28;20158;-82
2021/12/22 03:45:23;;;;;;;0.28;0.28;;;-3.80;99.90;;;;;;5090834;28;20394;-80
2021/12/22 03:47:50;;;;;;;0.40;0.40;;;-3.90;99.90;;;;;;5107791;28;20135;-79
2021/12/22 03:50:18;;;;;;;0.40;0.40;;;-3.90;99.90;;;;;;5093017;28;20043;-80
2021/12/22 03:52:47;;;;;;;0.40;0.40;;;-3.50;99.90;;;;;;5077092;28;20082;-82
2021/12/22 03:55:14;;;;;;;0.40;0.40;;;-3.90;99.90;;;;;;5077052;28;20048;-82
2021/12/22 03:57:41;;;;;;;0.70;0.70;;;-4.00;99.90;;;;;;5076696;28;20048;-80
2021/12/22 04:00:11;;;;;;;0.40;0.40;;;-4.00;99.90;;;;;;5093401;28;20478;-80
2021/12/22 04:02:38;;;;;;;0.40;0.40;;;-4.00;99.90;;;;;;5109434;28;20409;-80
2021/12/22 04:05:06;;;;;;;0.40;0.40;;;-4.00;99.90;;;;;;5077364;28;20050;-82
2021/12/22 04:07:33;;;;;;;0.40;0.40;;;-4.00;99.90;;;;;;5076703;28;20056;-80
2021/12/22 04:10:09;;;;;;;0.40;0.40;;;-4.00;99.90;;;;;;5093366;28;20040;-83
2021/12/22 04:12:35;;;;;;;0.40;0.40;;;-4.00;99.90;;;;;;5093046;28;20037;-81
2021/12/22 04:15:03;;;;;;;0.38;0.38;;;-2.90;99.90;;;;;;5092621;28;20382;-80
2021/12/22 04:17:29;;;;;;;0.30;0.30;;;-4.00;99.90;;;;;;5075963;28;20048;-81
2021/12/22 04:19:56;;;;;;;0.40;0.40;;;-4.00;99.90;;;;;;5076272;28;20102;-80
2021/12/22 04:22:23;;;;;;;0.40;0.40;;;-4.00;99.90;;;;;;5077336;28;20054;-82
2021/12/22 04:24:49;;;;;;;0.30;0.30;;;-4.00;99.90;;;;;;5092824;28;20037;-83
2021/12/22 04:27:16;;;;;;;0.40;0.40;;;-4.00;99.90;;;;;;5076278;28;20037;-82
2021/12/22 04:29:43;;;;;;;0.30;0.30;;;-4.10;99.90;;;;;;5077126;28;20493;-83
2021/12/22 04:32:09;;;;;;;0.38;0.38;;;-3.40;99.90;;;;;;5093186;28;20617;-83
2021/12/22 04:34:36;;;;;;;0.40;0.40;;;-4.10;99.90;;;;;;5076628;28;20037;-82
2021/12/22 04:37:03;;;;;;;0.30;0.30;;;-4.10;99.90;;;;;;5076498;28;20040;-83
2021/12/22 04:39:32;;;;;;;0.40;0.40;;;-4.10;99.90;;;;;;5076262;28;20040;-80
2021/12/22 04:42:00;;;;;;;0.40;0.40;;;-4.10;99.90;;;;;;5076959;28;20036;-83
2021/12/22 04:44:27;;;;;;;0.38;0.38;;;-4.10;99.90;;;;;;5092918;28;20044;-80
2021/12/22 04:46:53;;;;;;;0.30;0.30;;;-4.10;99.90;;;;;;5092692;28;20048;-83
2021/12/22 04:49:20;;;;;;;0.40;0.40;;;-3.10;99.90;;;;;;5075712;28;20044;-81
2021/12/22 04:51:52;;;;;;;0.40;0.40;;;-3.00;99.90;;;;;;5108658;28;20040;-81
2021/12/22 04:54:33;;;;;;;0.40;0.40;;;-4.20;99.90;;;;;;5092881;28;20052;-83
2021/12/22 04:56:59;;;;;;;0.40;0.40;;;-4.10;99.90;;;;;;5093256;28;20040;-83
2021/12/22 04:59:26;;;;;;;0.30;0.30;;;-4.20;99.90;;;;;;5076194;28;20386;-83
2021/12/22 05:01:53;;;;;;;0.40;0.40;;;-4.20;99.90;;;;;;5074388;28;20090;-81
2021/12/22 05:04:20;;;;;;;0.32;0.32;;;-4.20;99.90;;;;;;5075601;28;20094;-83
2021/12/22 05:06:47;;;;;;;0.40;0.40;;;-4.20;99.90;;;;;;5091552;28;20390;-79
2021/12/22 05:09:14;;;;;;;0.38;0.38;;;-3.70;99.90;;;;;;5075643;28;20060;-80
2021/12/22 05:11:41;;;;;;;0.40;0.40;;;-3.50;99.90;;;;;;5076150;28;20086;-82
2021/12/22 05:14:08;;;;;;;0.40;0.40;;;-4.20;99.90;;;;;;5092310;28;20048;-79
2021/12/22 05:16:44;;;;;;;0.38;0.38;;;-4.10;99.90;;;;;;5092943;28;20123;-82
2021/12/22 05:19:14;;;;;;;0.40;0.40;;;-4.20;99.90;;;;;;5077200;28;20098;-79
2021/12/22 05:21:43;;;;;;;0.40;0.40;;;-4.20;99.90;;;;;;5075184;28;20382;-80
2021/12/22 05:24:10;;;;;;;0.30;0.30;;;-4.20;99.90;;;;;;5091647;28;20087;-80
2021/12/22 05:26:37;;;;;;;0.40;0.40;;;-4.20;99.90;;;;;;5108157;28;20409;-80
2021/12/22 05:29:04;;;;;;;0.40;0.40;;;-4.20;99.90;;;;;;5108461;28;20047;-82
2021/12/22 05:31:31;;;;;;;0.30;0.30;;;-3.60;99.90;;;;;;5075479;28;20041;-82
2021/12/22 05:33:58;;;;;;;0.40;0.40;;;-4.20;99.90;;;;;;5091595;28;20037;-82
2021/12/22 05:36:25;;;;;;;0.40;0.40;;;-4.20;99.90;;;;;;5063757;28;20122;-80
2021/12/22 05:38:51;;;;;;;0.30;0.30;;;-4.20;99.90;;;;;;5076340;28;20058;-82
2021/12/22 05:41:18;;;;;;;0.40;0.40;;;-4.20;99.90;;;;;;5055617;28;20486;-82
2021/12/22 05:43:45;;;;;;;0.40;0.40;;;-4.20;99.90;;;;;;5071662;28;20043;-80
2021/12/22 05:46:12;;;;;;;0.32;0.32;;;-4.00;99.90;;;;;;5073206;28;20040;-80
2021/12/22 05:48:39;;;;;;;0.40;0.40;;;-4.30;99.90;;;;;;5091915;28;20124;-83
2021/12/22 05:51:06;;;;;;;0.40;0.40;;;-4.30;99.90;;;;;;5074477;28;20135;-83
2021/12/22 05:53:33;;;;;;;0.40;0.40;;;-3.10;99.90;;;;;;5091441;28;20047;-84
2021/12/22 05:56:00;;;;;;;0.40;0.40;;;-4.30;99.90;;;;;;5074742;28;20404;-82
2021/12/22 05:58:27;;;;;;;0.30;0.30;;;-4.30;99.90;;;;;;5091169;28;20036;-83
2021/12/22 06:00:54;;;;;;;0.40;0.40;;;-3.70;99.90;;;;;;5107094;28;20097;-80
2021/12/22 06:03:21;;;;;;;0.40;0.40;;;-4.30;99.90;;;;;;5091782;28;20032;-82
2021/12/22 06:05:48;;;;;;;0.40;0.40;;;-4.30;99.90;;;;;;5073304;28;20135;-80
2021/12/22 06:08:14;;;;;;;0.38;0.38;;;-4.30;99.90;;;;;;5073912;28;20044;-80
2021/12/22 06:10:41;;;;;;;0.40;0.40;;;-4.30;99.90;;;;;;5073735;28;20032;-82
2021/12/22 06:13:09;;;;;;;0.30;0.30;;;-4.40;99.90;;;;;;5071665;28;20115;-82
2021/12/22 06:15:38;;;;;;;0.40;0.40;;;-4.40;99.90;;;;;;5089877;28;20045;-80
2021/12/22 06:18:05;;;;;;;0.40;0.40;;;-4.40;99.90;;;;;;5070639;28;20489;-79
2021/12/22 06:20:34;;;;;;;0.30;0.30;;;-3.30;99.90;;;;;;5089384;28;20045;-83
2021/12/22 06:23:01;;;;;;;0.40;0.40;;;-4.40;99.90;;;;;;5066985;28;20040;-82
2021/12/22 06:25:28;;;;;;;0.40;0.40;;;-3.70;99.90;;;;;;5071313;28;20042;-80
2021/12/22 06:27:55;;;;;;;0.40;0.40;;;-4.40;99.90;;;;;;5078595;28;20482;-83
2021/12/22 06:30:23;;;;;;;0.40;0.40;;;-4.40;99.90;;;;;;5086346;28;20055;-79
2021/12/22 06:32:51;;;;;;;0.40;0.40;;;-4.50;99.90;;;;;;5076358;28;20120;-82
2021/12/22 06:35:19;;;;;;;0.30;0.30;;;-4.40;99.90;;;;;;5082505;28;20041;-80
2021/12/22 06:37:46;;;;;;;0.38;0.38;;;-4.40;99.90;;;;;;5074121;28;20054;-80
2021/12/22 06:40:15;;;;;;;0.32;0.32;;;-4.40;99.90;;;;;;5090674;28;20106;-83
2021/12/22 06:42:42;;;;;;;0.40;0.40;;;-4.40;99.90;;;;;;5090154;28;20382;-83
2021/12/22 06:45:10;;;;;;;0.32;0.32;;;-4.40;99.90;;;;;;5090412;28;20056;-82
2021/12/22 06:47:37;;;;;;;0.30;0.30;;;-4.40;99.90;;;;;;5056994;28;20123;-79
2021/12/22 06:50:05;;;;;;;0.40;0.40;;;-4.40;99.90;;;;;;5089632;28;20132;-80
2021/12/22 06:52:33;;;;;;;0.50;0.50;;;-4.40;99.90;;;;;;5073103;28;20033;-80
2021/12/22 06:55:00;;;;;;;0.40;0.40;;;-4.40;99.90;;;;;;5090027;28;20481;-82
2021/12/22 06:57:29;;;;;;;0.40;0.40;;;-4.40;99.90;;;;;;5058196;28;20049;-83
2021/12/22 06:59:57;;;;;;;0.40;0.40;;;-3.90;99.90;;;;;;5054725;28;20124;-82
2021/12/22 07:02:25;;;;;;;0.40;0.40;;;-4.40;99.90;;;;;;5068761;28;20041;-83
2021/12/22 07:04:52;;;;;;;0.38;0.38;;;-4.30;99.90;;;;;;5072610;28;20485;-81
2021/12/22 07:07:19;;;;;;;0.38;0.38;;;-4.40;99.90;;;;;;5082076;28;20053;-80
2021/12/22 07:09:46;;;;;;;0.30;0.30;;;-4.40;99.90;;;;;;5072591;28;20029;-83
2021/12/22 07:12:13;;;;;;;0.30;0.30;;;-4.40;99.90;;;;;;5059456;28;21344;-80
2021/12/22 07:14:39;;;;;;;0.40;0.40;;;-4.40;99.90;;;;;;5052980;28;20425;-80
2021/12/22 07:17:07;;;;;;;0.40;0.40;;;-4.30;99.90;;;;;;5085740;28;20037;-83
2021/12/22 07:19:34;;;;;;;0.40;0.40;;;-4.40;99.90;;;;;;5056688;28;20075;-80
2021/12/22 07:22:01;;;;;;;0.30;0.30;;;-3.30;99.90;;;;;;5086992;28;20374;-80
2021/12/22 07:24:28;;;;;;;0.70;0.70;;;-4.40;99.90;;;;;;5091414;28;20048;-80
2021/12/22 07:26:54;;;;;;;0.40;0.40;;;-3.60;99.90;;;;;;5096750;28;20082;-80
2021/12/22 07:29:21;;;;;;;0.40;0.40;;;-4.40;99.90;;;;;;5078738;28;20109;-81
2021/12/22 07:31:48;;;;;;;0.40;0.40;;;-3.20;99.90;;;;;;5079019;28;20033;-82
2021/12/22 07:34:27;;;;;;;0.38;0.38;;;-4.20;99.90;;;;;;5079691;28;20044;-78
2021/12/22 07:37:23;;;;;;;0.30;0.30;;;-4.40;99.90;;;;;;5113510;28;20102;-80
2021/12/22 07:39:49;;;;;;;0.30;0.30;;;-4.40;99.90;;;;;;5096050;28;20044;-80
2021/12/22 07:42:16;;;;;;;0.30;0.30;;;-3.80;99.90;;;;;;5095758;28;20063;-83
2021/12/22 07:44:43;;;;;;;0.40;0.40;;;-4.40;99.90;;;;;;5096217;28;20044;-84
2021/12/22 07:47:10;;;;;;;0.30;0.30;;;-4.40;99.90;;;;;;5079095;28;20040;-84
2021/12/22 07:49:40;;;;;;;0.30;0.30;;;-4.40;99.90;;;;;;5067043;28;20407;-83
2021/12/22 07:52:07;;;;;;;0.38;0.38;;;-3.90;99.90;;;;;;5091831;28;20119;-83
2021/12/22 07:54:33;;;;;;;0.50;0.50;;;-4.40;99.90;;;;;;5075684;28;20075;-83
2021/12/22 07:57:00;;;;;;;0.30;0.30;;;-4.40;99.90;;;;;;5059079;28;20162;-81
2021/12/22 07:59:27;;;;;;;0.30;0.30;;;-4.50;99.90;;;;;;5059526;28;20389;-84
2021/12/22 08:01:54;;;;;;;0.40;0.40;;;-4.40;99.90;;;;;;5076598;28;20044;-83
2021/12/22 08:04:22;;;;;;;0.40;0.40;;;-3.90;99.90;;;;;;5059653;28;20048;-83
2021/12/22 08:06:48;;;;;;;0.30;0.30;;;-4.40;99.90;;;;;;5058880;28;20044;-78
2021/12/22 08:09:15;;;;;;;0.40;0.40;;;-4.40;99.90;;;;;;5074723;28;20049;-83
2021/12/22 08:11:42;;;;;;;0.30;0.30;;;-3.20;99.90;;;;;;5058907;28;20041;-82
2021/12/22 08:14:09;;;;;;;0.40;0.40;;;-4.30;99.90;;;;;;5083002;28;20102;-80
2021/12/22 08:16:36;;;;;;;0.30;0.30;;;-4.30;99.90;;;;;;5079790;28;20075;-82
2021/12/22 08:19:02;;;;;;;0.30;0.30;;;-4.30;99.90;;;;;;5079129;28;20044;-82
2021/12/22 08:21:29;;;;;;;0.40;0.40;;;-4.30;99.90;;;;;;5070361;28;20048;-80
2021/12/22 08:23:56;;;;;;;0.40;0.40;;;-4.30;99.90;;;;;;5063751;28;20052;-80
2021/12/22 08:26:22;;;;;;;0.50;0.50;;;-4.20;99.90;;;;;;5081738;28;20044;-82
2021/12/22 08:28:49;;;;;;;0.30;0.30;;;-4.10;99.90;;;;;;5086795;28;20040;-82
2021/12/22 08:31:16;;;;;;;0.32;0.32;;;-4.20;99.90;;;;;;5078664;28;20040;-79
2021/12/22 08:33:45;;;;;;;0.30;0.30;;;-4.10;99.90;;;;;;5080013;28;20036;-83
2021/12/22 08:39:04;;;;;;;0.30;0.30;;;-4.10;99.90;;;;;;5098637;28;20060;-81
2021/12/22 08:41:33;;;;;;;0.30;0.30;;;-3.50;99.90;;;;;;5075208;28;20524;-80
2021/12/22 08:44:03;;;;;;;0.30;0.30;;;-4.00;99.90;;;;;;5083252;28;20045;-83
2021/12/22 08:46:31;;;;;;;0.40;0.40;;;-4.00;99.90;;;;;;5092224;28;20421;-80
2021/12/22 08:48:58;;;;;;;0.30;0.30;;;-4.00;99.90;;;;;;5091028;28;20048;-82
2021/12/22 08:51:25;;;;;;;0.25;0.25;;;-3.00;99.90;;;;;;5092867;28;20639;-82
2021/12/22 08:53:55;;;;;;;9.55;0.93;;;-3.00;99.90;;;;;;5092430;28;20036;-82
2021/12/22 08:56:22;;;;;;;0.30;0.30;;;-3.00;99.90;;;;;;5066508;28;20037;-82
2021/12/22 08:58:49;;;;;;;0.35;0.35;;;-3.70;99.90;;;;;;5055454;28;20045;-83
2021/12/22 09:01:16;;;;;;;0.40;0.40;;;-3.10;99.90;;;;;;5054878;28;20136;-83
2021/12/22 09:03:43;;;;;;;0.40;0.40;;;-3.80;99.90;;;;;;5072266;28;20123;-83
2021/12/22 09:06:12;;;;;;;0.30;0.30;;;-3.70;99.90;;;;;;5087307;28;20436;-83
2021/12/22 09:08:40;;;;;;;0.40;0.40;;;-3.70;99.90;;;;;;5081806;28;20048;-83
2021/12/22 09:11:07;;;;;;;0.40;0.40;;;-3.60;99.90;;;;;;5071116;28;20136;-81
2021/12/22 09:13:36;;;;;;;0.32;0.32;;;-3.50;99.90;;;;;;5078646;28;20567;-82
2021/12/22 09:16:04;;;;;;;0.30;0.30;;;-2.10;99.90;;;;;;5039718;28;20037;-80
2021/12/22 09:18:31;;;;;;;0.30;0.30;;;-3.50;99.90;;;;;;5076701;28;20041;-82
2021/12/22 09:20:57;;;;;;;0.30;0.30;;;-2.50;99.90;;;;;;5072081;28;20037;-81
2021/12/22 09:23:24;;;;;;;0.57;0.57;;;-3.50;99.90;;;;;;5080360;28;20044;-81
2021/12/22 09:25:51;;;;;;;0.35;0.35;;;-3.40;99.90;;;;;;5074806;28;20080;-81
2021/12/22 09:28:18;;;;;;;0.40;0.40;;;-2.30;99.90;;;;;;5073838;28;20472;-81
2021/12/22 09:30:46;;;;;;;0.30;0.30;;;-3.40;99.90;;;;;;5074910;28;20029;-81
2021/12/22 09:33:16;;;;;;;0.30;0.30;;;-3.30;99.90;;;;;;5091289;28;20037;-80
2021/12/22 09:35:46;;;;;;;0.35;0.35;;;-2.40;99.90;;;;;;5108080;28;20094;-80
2021/12/22 09:38:13;;;;;;;0.30;0.30;;;-3.30;99.90;;;;;;5090671;28;20402;-83
2021/12/22 09:40:40;;;;;;;0.30;0.30;;;-3.30;99.90;;;;;;5085141;28;20101;-82
2021/12/22 09:43:08;;;;;;;0.30;0.30;;;-3.20;99.90;;;;;;5074905;28;20501;-80
2021/12/22 09:45:41;;;;;;;0.32;0.32;;;-3.20;99.90;;;;;;5090657;28;20858;-80
2021/12/22 09:53:21;;;;;;;0.40;0.40;;;-3.10;99.90;;;;;;5087262;28;20084;-83
2021/12/22 09:55:50;;;;;;;0.40;0.40;;;-3.10;99.90;;;;;;5070815;28;20052;-82
2021/12/22 09:58:17;;;;;;;0.30;0.30;;;-2.30;99.90;;;;;;5070321;28;20044;-83
2021/12/22 10:00:45;;;;;;;0.30;0.30;;;-3.00;99.90;;;;;;5054037;28;20131;-80
2021/12/22 10:03:13;;;;;;;0.30;0.30;;;-3.00;99.90;;;;;;5086726;28;20033;-82
2021/12/22 10:05:43;;;;;;;0.30;0.30;;;-2.90;99.90;;;;;;5070285;28;20065;-80
2021/12/22 10:08:24;;;;;;;0.40;0.40;;;-2.90;99.90;;;;;;5086824;28;20138;-80
2021/12/22 10:11:11;;;;;;;0.30;0.30;;;-2.80;99.90;;;;;;5055289;28;20095;-82
2021/12/22 10:13:43;;;;;;;0.30;0.30;;;-2.80;99.90;;;;;;5085199;28;20048;-82
2021/12/22 10:16:11;;;;;;;0.32;0.32;;;-2.80;99.90;;;;;;5091036;28;20097;-81
2021/12/22 10:18:38;;;;;;;0.30;0.30;;;-2.70;99.90;;;;;;5090335;28;20428;-82
2021/12/22 10:21:17;;;;;;;0.30;0.30;;;-2.60;99.90;;;;;;5091011;28;20040;-82
2021/12/22 10:23:52;;;;;;;0.30;0.30;;;-2.60;99.90;;;;;;5090406;28;20041;-81
2021/12/22 10:26:22;;;;;;;0.45;0.45;;;-2.60;99.90;;;;;;5106990;28;20037;-81
2021/12/22 10:29:01;;;;;;;0.38;0.38;;;-2.50;99.90;;;;;;5090356;28;20455;-81
2021/12/22 10:31:44;;;;;;;0.35;0.35;;;-2.50;99.90;;;;;;5089729;28;20401;-81
2021/12/22 10:34:16;;;;;;;0.40;0.40;;;-2.40;99.90;;;;;;5090811;28;20115;-81
2021/12/22 10:36:55;;;;;;;0.30;0.30;;;-2.40;99.90;;;;;;5093129;28;20044;-82
2021/12/22 10:39:24;;;;;;;0.30;0.30;;;-2.40;99.90;;;;;;5109709;28;20044;-81
2021/12/22 10:41:51;;;;;;;0.32;0.32;;;-2.30;99.90;;;;;;5093292;28;20489;-81
2021/12/22 10:44:19;;;;;;;0.40;0.40;;;-2.20;99.90;;;;;;5090004;28;20080;-81
2021/12/22 10:46:46;;;;;;;0.32;0.32;;;-2.20;99.90;;;;;;5107236;28;20040;-81
2021/12/22 10:49:15;;;;;;;0.30;0.30;;;-2.20;99.90;;;;;;5090425;28;20472;-81
2021/12/22 10:51:57;;;;;;;0.40;0.40;;;-2.20;99.90;;;;;;5090585;28;20032;-81
2021/12/22 10:54:36;;;;;;;0.30;0.30;;;-2.10;99.90;;;;;;5090269;28;20048;-81
2021/12/22 10:57:10;;;;;;;0.30;0.30;;;-1.30;99.90;;;;;;5090783;28;20062;-81
2021/12/22 10:59:47;;;;;;;0.30;0.30;;;-2.00;99.90;;;;;;5089326;28;20068;-81
2021/12/22 11:02:24;;;;;;;0.40;0.40;;;-2.00;99.90;;;;;;5106865;28;20127;-81
2021/12/22 11:04:51;;;;;;;0.38;0.38;;;-1.90;99.90;;;;;;5089792;28;20036;-82
2021/12/22 11:07:26;;;;;;;0.30;0.30;;;-1.90;99.90;;;;;;5073119;28;20064;-82
2021/12/22 11:09:54;;;;;;;0.30;0.30;;;-1.30;99.90;;;;;;5090154;28;20032;-81
2021/12/22 11:12:35;;;;;;;0.30;0.30;;;-1.70;99.90;;;;;;5090171;28;20032;-82
2021/12/22 11:15:03;;;;;;;0.30;0.30;;;-1.70;99.90;;;;;;5090286;28;20123;-81
2021/12/22 11:17:31;;;;;;;0.82;0.82;;;-1.70;99.90;;;;;;5089511;28;20048;-80
2021/12/22 11:20:04;;;;;;;0.30;0.30;;;-1.60;99.90;;;;;;5073892;28;20040;-81
2021/12/22 11:22:53;;;;;;;0.30;0.30;;;-1.60;99.90;;;;;;5089658;28;20114;-81
2021/12/22 11:25:21;;;;;;;0.30;0.30;;;-1.50;99.90;;;;;;5092310;28;20044;-81
2021/12/22 11:27:50;;;;;;;0.30;0.30;;;-1.50;99.90;;;;;;5089663;28;20082;-81
2021/12/22 11:30:17;;;;;;;0.30;0.30;;;-1.50;99.90;;;;;;5090117;28;20086;-81
2021/12/22 11:32:44;;;;;;;0.30;0.30;;;-1.50;99.90;;;;;;5089677;28;20040;-81
2021/12/22 11:35:14;;;;;;;0.25;0.25;;;-1.40;99.90;;;;;;5089852;28;20041;-81
2021/12/22 11:37:41;;;;;;;0.20;0.20;;;-0.20;99.90;;;;;;5089797;28;20047;-81
2021/12/22 11:40:10;;;;;;;0.30;0.30;;;-1.40;99.90;;;;;;5089344;28;20071;-80
2021/12/22 11:42:39;;;;;;;0.30;0.30;;;-1.40;99.90;;;;;;5105659;28;20044;-81
2021/12/22 11:45:16;;;;;;;0.30;0.30;;;-1.30;99.90;;;;;;5106584;28;20044;-81
2021/12/22 11:47:52;;;;;;;0.50;0.50;;;-1.30;99.90;;;;;;5089151;28;20036;-81
2021/12/22 11:50:21;;;;;;;0.30;0.30;;;-1.30;99.90;;;;;;5073669;28;20040;-81
2021/12/22 11:52:55;;;;;;;0.30;0.30;;;-1.20;99.90;;;;;;5089191;28;20033;-82
2021/12/22 11:55:42;;;;;;;0.30;0.30;;;-0.90;99.90;;;;;;5089613;28;20512;-81
2021/12/22 11:58:17;;;;;;;0.30;0.30;;;-1.20;99.90;;;;;;5089566;28;20083;-81
2021/12/22 12:00:54;;;;;;;0.38;0.38;;;-1.20;99.90;;;;;;5088485;28;20040;-80
2021/12/22 12:03:37;;;;;;;0.30;0.30;;;-1.20;99.90;;;;;;5099341;28;20124;-82
2021/12/22 12:06:08;;;;;;;0.30;0.30;;;-0.90;99.90;;;;;;5088850;28;20045;-81
2021/12/22 12:08:46;;;;;;;2.10;0.85;;;-1.20;99.90;;;;;;5089116;28;20516;-81
2021/12/22 12:11:32;;;;;;;0.20;0.20;;;-1.20;99.90;;;;;;5092245;28;20036;-81
2021/12/22 12:14:07;;;;;;;0.30;0.30;;;-1.20;99.90;;;;;;5110068;28;20036;-81
2021/12/22 12:22:33;;;;;;;0.30;0.30;;;-1.10;99.90;;;;;;5109421;28;20048;-80
2021/12/22 12:25:08;;;;;;;0.30;0.30;;;-1.10;99.90;;;;;;5092715;28;20519;-81
2021/12/22 12:27:50;;;;;;;0.30;0.30;;;-1.10;99.90;;;;;;5092366;28;20409;-81
2021/12/22 12:30:41;;;;;;;0.20;0.20;;;-1.10;99.90;;;;;;5092495;28;20481;-82
2021/12/22 12:33:10;;;;;;;0.30;0.30;;;-1.10;99.90;;;;;;5092647;28;20079;-83
2021/12/22 12:35:48;;;;;;;0.40;0.40;;;-1.10;99.90;;;;;;5092375;28;20037;-81
2021/12/22 12:38:19;;;;;;;0.40;0.40;;;-1.20;99.90;;;;;;5109184;28;20459;-81
2021/12/22 12:41:15;;;;;;;0.30;0.30;;;-1.10;99.90;;;;;;5092320;28;20044;-82
2021/12/22 12:43:45;;;;;;;0.15;0.15;;;-1.10;99.90;;;;;;5082544;28;20053;-81
2021/12/22 12:46:21;;;;;;;0.30;0.30;;;-1.10;99.90;;;;;;5088934;28;20401;-81
2021/12/22 12:48:56;;;;;;;0.30;0.30;;;-1.10;99.90;;;;;;5088115;28;20083;-82
2021/12/22 12:51:34;;;;;;;0.30;0.30;;;-1.10;99.90;;;;;;5059660;28;20041;-82
2021/12/22 12:54:06;;;;;;;0.30;0.30;;;-1.10;99.90;;;;;;5080501;28;20032;-82
2021/12/22 12:56:39;;;;;;;0.20;0.20;;;-1.10;99.90;;;;;;5081059;28;20037;-81
2021/12/22 12:59:37;;;;;;;0.30;0.30;;;-1.00;99.90;;;;;;5090938;28;20040;-82
2021/12/22 13:02:09;;;;;;;0.30;0.30;;;-1.00;99.90;;;;;;5057796;28;20052;-82
2021/12/22 13:04:38;;;;;;;0.30;0.30;;;-1.00;99.90;;;;;;5085490;28;20090;-82
2021/12/22 13:07:14;;;;;;;0.30;0.30;;;-1.00;99.90;;;;;;5089153;28;20056;-82
2021/12/22 13:09:44;;;;;;;0.30;0.30;;;-0.90;99.90;;;;;;5090412;28;20420;-80
2021/12/22 13:17:55;;;;;;;0.28;0.28;;;-0.70;99.90;;;;;;5090915;28;20057;-83
2021/12/22 13:20:28;;;;;;;0.25;0.25;;;-0.90;99.90;;;;;;5080229;28;20489;-81
2021/12/22 13:22:58;;;;;;;0.20;0.20;;;-1.00;99.90;;;;;;5107108;28;20080;-82
2021/12/22 13:25:32;;;;;;;0.30;0.30;;;-0.40;99.90;;;;;;5074989;28;20048;-81
2021/12/22 13:28:04;;;;;;;0.20;0.20;;;-1.00;99.90;;;;;;5107875;28;20379;-81